sensor_id;sensor_type;location;lat;lon;timestamp;temperature;humidity
30308;DHT22;17114;52.314;8.910;2023-01-31T00:01:17;4.30;99.90
30308;DHT22;17114;52.314;8.910;2023-01-31T00:03:45;4.20;99.90
30308;DHT22;17114;52.314;8.910;2023-01-31T00:08:47;4.10;99.90
30308;DHT22;17114;52.314;8.910;2023-01-31T00:11:16;4.10;99.90
30308;DHT22;17114;52.314;8.910;2023-01-31T00:13:44;4.10;99.90
30308;DHT22;17114;52.314;8.910;2023-01-31T00:16:13;4.10;99.90
30308;DHT22;17114;52.314;8.910;2023-01-31T00:18:41;4.10;99.90
30308;DHT22;17114;52.314;8.910;2023-01-31T00:21:11;4.10;99.90
30308;DHT22;17114;52.314;8.910;2023-01-31T00:23:39;4.00;99.90
30308;DHT22;17114;52.314;8.910;2023-01-31T00:28:48;3.90;99.90
30308;DHT22;17114;52.314;8.910;2023-01-31T00:31:16;4.00;99.90
30308;DHT22;17114;52.314;8.910;2023-01-31T00:33:44;3.90;99.90
30308;DHT22;17114;52.314;8.910;2023-01-31T00:36:18;4.10;99.90
30308;DHT22;17114;52.314;8.910;2023-01-31T00:38:53;3.80;99.90
30308;DHT22;17114;52.314;8.910;2023-01-31T00:41:22;4.00;99.90
30308;DHT22;17114;52.314;8.910;2023-01-31T00:43:50;4.10;99.90
30308;DHT22;17114;52.314;8.910;2023-01-31T00:46:17;4.20;99.90
30308;DHT22;17114;52.314;8.910;2023-01-31T00:48:48;4.20;99.90
30308;DHT22;17114;52.314;8.910;2023-01-31T00:51:15;4.20;99.90
30308;DHT22;17114;52.314;8.910;2023-01-31T00:53:42;4.30;99.90
30308;DHT22;17114;52.314;8.910;2023-01-31T00:56:14;4.30;99.90
30308;DHT22;17114;52.314;8.910;2023-01-31T00:58:41;4.40;99.90
30308;DHT22;17114;52.314;8.910;2023-01-31T01:01:13;4.40;99.90
30308;DHT22;17114;52.314;8.910;2023-01-31T01:03:41;4.40;99.90
30308;DHT22;17114;52.314;8.910;2023-01-31T01:06:10;4.30;99.90
30308;DHT22;17114;52.314;8.910;2023-01-31T01:08:38;4.30;99.90
30308;DHT22;17114;52.314;8.910;2023-01-31T01:11:18;4.30;99.90
30308;DHT22;17114;52.314;8.910;2023-01-31T01:13:45;4.30;99.90
30308;DHT22;17114;52.314;8.910;2023-01-31T01:16:14;4.30;99.90
30308;DHT22;17114;52.314;8.910;2023-01-31T01:18:42;4.30;99.90
30308;DHT22;17114;52.314;8.910;2023-01-31T01:21:17;4.30;99.90
30308;DHT22;17114;52.314;8.910;2023-01-31T01:23:45;4.30;99.90
30308;DHT22;17114;52.314;8.910;2023-01-31T01:26:20;4.30;99.90
30308;DHT22;17114;52.314;8.910;2023-01-31T01:28:48;4.30;99.90
30308;DHT22;17114;52.314;8.910;2023-01-31T01:31:16;4.30;99.90
30308;DHT22;17114;52.314;8.910;2023-01-31T01:33:45;4.30;99.90
30308;DHT22;17114;52.314;8.910;2023-01-31T01:36:14;4.30;99.90
30308;DHT22;17114;52.314;8.910;2023-01-31T01:38:48;4.30;99.90
30308;DHT22;17114;52.314;8.910;2023-01-31T01:41:15;4.20;99.90
30308;DHT22;17114;52.314;8.910;2023-01-31T01:43:53;4.30;99.90
30308;DHT22;17114;52.314;8.910;2023-01-31T01:46:27;4.10;99.90
30308;DHT22;17114;52.314;8.910;2023-01-31T01:49:10;4.30;99.90
30308;DHT22;17114;52.314;8.910;2023-01-31T01:51:38;4.00;99.90
30308;DHT22;17114;52.314;8.910;2023-01-31T01:54:24;4.00;99.90
30308;DHT22;17114;52.314;8.910;2023-01-31T01:56:57;3.90;99.90
30308;DHT22;17114;52.314;8.910;2023-01-31T01:59:30;3.90;99.90
30308;DHT22;17114;52.314;8.910;2023-01-31T02:01:59;3.80;99.90
30308;DHT22;17114;52.314;8.910;2023-01-31T02:04:31;3.90;99.90
30308;DHT22;17114;52.314;8.910;2023-01-31T02:07:00;3.90;99.90
30308;DHT22;17114;52.314;8.910;2023-01-31T02:12:07;3.90;99.90
30308;DHT22;17114;52.314;8.910;2023-01-31T02:14:35;3.90;99.90
30308;DHT22;17114;52.314;8.910;2023-01-31T02:17:02;4.00;99.90
30308;DHT22;17114;52.314;8.910;2023-01-31T02:31:09;4.20;99.90
30308;DHT22;17114;52.314;8.910;2023-01-31T02:33:54;4.10;99.90
30308;DHT22;17114;52.314;8.910;2023-01-31T02:42:13;4.20;99.90
30308;DHT22;17114;52.314;8.910;2023-01-31T02:52:50;4.20;99.90
30308;DHT22;17114;52.314;8.910;2023-01-31T02:58:17;4.20;99.90
30308;DHT22;17114;52.314;8.910;2023-01-31T03:00:46;4.10;99.90
30308;DHT22;17114;52.314;8.910;2023-01-31T03:03:35;4.10;99.90
30308;DHT22;17114;52.314;8.910;2023-01-31T03:09:23;4.10;99.90
30308;DHT22;17114;52.314;8.910;2023-01-31T03:12:28;3.90;99.90
30308;DHT22;17114;52.314;8.910;2023-01-31T03:17:50;3.90;99.90
30308;DHT22;17114;52.314;8.910;2023-01-31T03:20:49;3.90;99.90
30308;DHT22;17114;52.314;8.910;2023-01-31T03:23:21;3.80;99.90
30308;DHT22;17114;52.314;8.910;2023-01-31T03:25:50;3.70;99.90
30308;DHT22;17114;52.314;8.910;2023-01-31T03:28:21;3.70;99.90
30308;DHT22;17114;52.314;8.910;2023-01-31T03:30:57;3.60;99.90
30308;DHT22;17114;52.314;8.910;2023-01-31T03:33:29;3.60;99.90
30308;DHT22;17114;52.314;8.910;2023-01-31T03:36:05;3.50;99.90
30308;DHT22;17114;52.314;8.910;2023-01-31T03:38:37;3.50;99.90
30308;DHT22;17114;52.314;8.910;2023-01-31T03:44:09;3.40;99.90
30308;DHT22;17114;52.314;8.910;2023-01-31T03:46:41;3.30;99.90
30308;DHT22;17114;52.314;8.910;2023-01-31T03:49:11;3.30;99.90
30308;DHT22;17114;52.314;8.910;2023-01-31T03:51:43;3.10;99.90
30308;DHT22;17114;52.314;8.910;2023-01-31T03:54:18;3.20;99.90
30308;DHT22;17114;52.314;8.910;2023-01-31T03:57:04;3.20;99.90
30308;DHT22;17114;52.314;8.910;2023-01-31T03:59:36;3.10;99.90
30308;DHT22;17114;52.314;8.910;2023-01-31T04:02:06;3.10;99.90
30308;DHT22;17114;52.314;8.910;2023-01-31T04:04:40;3.10;99.90
30308;DHT22;17114;52.314;8.910;2023-01-31T04:07:09;3.00;99.90
30308;DHT22;17114;52.314;8.910;2023-01-31T04:09:37;3.10;99.90
30308;DHT22;17114;52.314;8.910;2023-01-31T04:12:05;3.10;99.90
30308;DHT22;17114;52.314;8.910;2023-01-31T04:14:32;3.00;99.90
30308;DHT22;17114;52.314;8.910;2023-01-31T04:16:58;3.00;99.90
30308;DHT22;17114;52.314;8.910;2023-01-31T04:19:25;3.00;99.90
30308;DHT22;17114;52.314;8.910;2023-01-31T04:21:52;3.00;99.90
30308;DHT22;17114;52.314;8.910;2023-01-31T04:24:19;3.10;99.90
30308;DHT22;17114;52.314;8.910;2023-01-31T04:26:46;3.10;99.90
30308;DHT22;17114;52.314;8.910;2023-01-31T04:29:13;3.10;99.90
30308;DHT22;17114;52.314;8.910;2023-01-31T04:31:40;3.10;99.90
30308;DHT22;17114;52.314;8.910;2023-01-31T04:34:07;3.10;99.90
30308;DHT22;17114;52.314;8.910;2023-01-31T04:36:35;3.10;99.90
30308;DHT22;17114;52.314;8.910;2023-01-31T04:39:02;3.20;99.90
30308;DHT22;17114;52.314;8.910;2023-01-31T04:41:28;3.10;99.90
30308;DHT22;17114;52.314;8.910;2023-01-31T04:43:55;3.10;99.90
30308;DHT22;17114;52.314;8.910;2023-01-31T04:46:23;3.20;99.90
30308;DHT22;17114;52.314;8.910;2023-01-31T04:48:50;3.20;99.90
30308;DHT22;17114;52.314;8.910;2023-01-31T04:51:16;3.20;99.90
30308;DHT22;17114;52.314;8.910;2023-01-31T04:53:43;3.10;99.90
30308;DHT22;17114;52.314;8.910;2023-01-31T04:56:10;3.20;99.90
30308;DHT22;17114;52.314;8.910;2023-01-31T04:58:37;3.20;99.90
30308;DHT22;17114;52.314;8.910;2023-01-31T05:01:04;3.10;99.90
30308;DHT22;17114;52.314;8.910;2023-01-31T05:03:31;3.20;99.90
30308;DHT22;17114;52.314;8.910;2023-01-31T05:05:58;3.20;99.90
30308;DHT22;17114;52.314;8.910;2023-01-31T05:08:25;3.20;99.90
30308;DHT22;17114;52.314;8.910;2023-01-31T05:10:59;3.20;99.90
30308;DHT22;17114;52.314;8.910;2023-01-31T05:13:29;3.20;99.90
30308;DHT22;17114;52.314;8.910;2023-01-31T05:15:58;3.40;99.90
30308;DHT22;17114;52.314;8.910;2023-01-31T05:18:25;3.30;99.90
30308;DHT22;17114;52.314;8.910;2023-01-31T05:20:52;3.20;99.90
30308;DHT22;17114;52.314;8.910;2023-01-31T05:23:19;3.30;99.90
30308;DHT22;17114;52.314;8.910;2023-01-31T05:25:48;3.20;99.90
30308;DHT22;17114;52.314;8.910;2023-01-31T05:28:16;3.30;99.90
30308;DHT22;17114;52.314;8.910;2023-01-31T05:30:43;3.30;99.90
30308;DHT22;17114;52.314;8.910;2023-01-31T05:33:10;3.30;99.90
30308;DHT22;17114;52.314;8.910;2023-01-31T05:35:37;3.30;99.90
30308;DHT22;17114;52.314;8.910;2023-01-31T05:38:05;3.40;99.90
30308;DHT22;17114;52.314;8.910;2023-01-31T05:40:32;3.30;99.90
30308;DHT22;17114;52.314;8.910;2023-01-31T05:42:59;3.30;99.90
30308;DHT22;17114;52.314;8.910;2023-01-31T05:45:27;3.40;99.90
30308;DHT22;17114;52.314;8.910;2023-01-31T05:47:54;3.30;99.90
30308;DHT22;17114;52.314;8.910;2023-01-31T05:50:21;3.40;99.90
30308;DHT22;17114;52.314;8.910;2023-01-31T05:52:54;3.40;99.90
30308;DHT22;17114;52.314;8.910;2023-01-31T05:55:21;3.40;99.90
30308;DHT22;17114;52.314;8.910;2023-01-31T05:57:48;3.30;99.90
30308;DHT22;17114;52.314;8.910;2023-01-31T06:00:15;3.50;99.90
30308;DHT22;17114;52.314;8.910;2023-01-31T06:02:42;3.40;99.90
30308;DHT22;17114;52.314;8.910;2023-01-31T06:05:10;3.40;99.90
30308;DHT22;17114;52.314;8.910;2023-01-31T06:07:37;3.40;99.90
30308;DHT22;17114;52.314;8.910;2023-01-31T06:10:06;3.40;99.90
30308;DHT22;17114;52.314;8.910;2023-01-31T06:12:33;3.50;99.90
30308;DHT22;17114;52.314;8.910;2023-01-31T06:15:01;3.50;99.90
30308;DHT22;17114;52.314;8.910;2023-01-31T06:17:28;3.60;99.90
30308;DHT22;17114;52.314;8.910;2023-01-31T06:19:56;3.50;99.90
30308;DHT22;17114;52.314;8.910;2023-01-31T06:22:23;3.50;99.90
30308;DHT22;17114;52.314;8.910;2023-01-31T06:24:50;3.50;99.90
30308;DHT22;17114;52.314;8.910;2023-01-31T06:27:17;3.60;99.90
30308;DHT22;17114;52.314;8.910;2023-01-31T06:29:43;3.60;99.90
30308;DHT22;17114;52.314;8.910;2023-01-31T06:32:10;3.60;99.90
30308;DHT22;17114;52.314;8.910;2023-01-31T06:34:37;3.60;99.90
30308;DHT22;17114;52.314;8.910;2023-01-31T06:37:07;3.60;99.90
30308;DHT22;17114;52.314;8.910;2023-01-31T06:39:35;3.50;99.90
30308;DHT22;17114;52.314;8.910;2023-01-31T06:42:02;3.70;99.90
30308;DHT22;17114;52.314;8.910;2023-01-31T06:44:29;3.70;99.90
30308;DHT22;17114;52.314;8.910;2023-01-31T06:47:00;3.70;99.90
30308;DHT22;17114;52.314;8.910;2023-01-31T06:49:26;3.80;99.90
30308;DHT22;17114;52.314;8.910;2023-01-31T06:51:53;3.80;99.90
30308;DHT22;17114;52.314;8.910;2023-01-31T06:54:21;3.90;99.90
30308;DHT22;17114;52.314;8.910;2023-01-31T06:56:47;3.90;99.90
30308;DHT22;17114;52.314;8.910;2023-01-31T06:59:14;3.90;99.90
30308;DHT22;17114;52.314;8.910;2023-01-31T07:01:41;3.90;99.90
30308;DHT22;17114;52.314;8.910;2023-01-31T07:04:08;3.90;99.90
30308;DHT22;17114;52.314;8.910;2023-01-31T07:06:35;3.90;99.90
30308;DHT22;17114;52.314;8.910;2023-01-31T07:09:02;4.10;99.90
30308;DHT22;17114;52.314;8.910;2023-01-31T07:11:29;4.00;99.90
30308;DHT22;17114;52.314;8.910;2023-01-31T07:13:57;4.00;99.90
30308;DHT22;17114;52.314;8.910;2023-01-31T07:16:23;4.00;99.90
30308;DHT22;17114;52.314;8.910;2023-01-31T07:18:53;4.00;99.90
30308;DHT22;17114;52.314;8.910;2023-01-31T07:21:21;4.10;99.90
30308;DHT22;17114;52.314;8.910;2023-01-31T07:23:48;4.00;99.90
30308;DHT22;17114;52.314;8.910;2023-01-31T07:26:15;4.10;99.90
30308;DHT22;17114;52.314;8.910;2023-01-31T07:28:42;4.10;99.90
30308;DHT22;17114;52.314;8.910;2023-01-31T07:31:13;4.10;99.90
30308;DHT22;17114;52.314;8.910;2023-01-31T07:33:40;4.20;99.90
30308;DHT22;17114;52.314;8.910;2023-01-31T07:36:11;4.30;99.90
30308;DHT22;17114;52.314;8.910;2023-01-31T07:38:39;4.30;99.90
30308;DHT22;17114;52.314;8.910;2023-01-31T07:41:06;4.30;99.90
30308;DHT22;17114;52.314;8.910;2023-01-31T07:43:34;4.30;99.90
30308;DHT22;17114;52.314;8.910;2023-01-31T07:46:01;4.40;99.90
30308;DHT22;17114;52.314;8.910;2023-01-31T07:48:28;4.40;99.90
30308;DHT22;17114;52.314;8.910;2023-01-31T07:51:00;4.50;99.90
30308;DHT22;17114;52.314;8.910;2023-01-31T07:53:30;4.50;99.90
30308;DHT22;17114;52.314;8.910;2023-01-31T07:58:37;4.50;99.90
30308;DHT22;17114;52.314;8.910;2023-01-31T08:01:04;4.50;99.90
30308;DHT22;17114;52.314;8.910;2023-01-31T08:03:51;4.50;99.90
30308;DHT22;17114;52.314;8.910;2023-01-31T08:06:18;4.60;99.90
30308;DHT22;17114;52.314;8.910;2023-01-31T08:08:45;4.60;99.90
30308;DHT22;17114;52.314;8.910;2023-01-31T08:11:12;4.60;99.90
30308;DHT22;17114;52.314;8.910;2023-01-31T08:13:39;4.60;99.90
30308;DHT22;17114;52.314;8.910;2023-01-31T08:16:08;4.60;99.90
30308;DHT22;17114;52.314;8.910;2023-01-31T08:18:36;4.60;99.90
30308;DHT22;17114;52.314;8.910;2023-01-31T08:21:04;4.70;99.90
30308;DHT22;17114;52.314;8.910;2023-01-31T08:23:31;4.70;99.90
30308;DHT22;17114;52.314;8.910;2023-01-31T08:26:11;4.70;99.90
30308;DHT22;17114;52.314;8.910;2023-01-31T08:28:39;4.70;99.90
30308;DHT22;17114;52.314;8.910;2023-01-31T08:31:10;4.80;99.90
30308;DHT22;17114;52.314;8.910;2023-01-31T08:33:38;4.60;99.90
30308;DHT22;17114;52.314;8.910;2023-01-31T08:36:19;4.60;99.90
30308;DHT22;17114;52.314;8.910;2023-01-31T08:38:47;4.70;99.90
30308;DHT22;17114;52.314;8.910;2023-01-31T08:41:14;4.80;99.90
30308;DHT22;17114;52.314;8.910;2023-01-31T08:43:44;4.80;99.90
30308;DHT22;17114;52.314;8.910;2023-01-31T08:46:25;4.80;99.90
30308;DHT22;17114;52.314;8.910;2023-01-31T08:48:52;4.80;99.90
30308;DHT22;17114;52.314;8.910;2023-01-31T08:51:19;4.80;99.90
30308;DHT22;17114;52.314;8.910;2023-01-31T08:53:45;4.90;99.90
30308;DHT22;17114;52.314;8.910;2023-01-31T08:56:14;4.70;99.90
30308;DHT22;17114;52.314;8.910;2023-01-31T08:58:42;4.70;99.90
30308;DHT22;17114;52.314;8.910;2023-01-31T09:01:12;4.70;99.90
30308;DHT22;17114;52.314;8.910;2023-01-31T09:03:39;4.70;99.90
30308;DHT22;17114;52.314;8.910;2023-01-31T09:06:13;4.70;99.90
30308;DHT22;17114;52.314;8.910;2023-01-31T09:08:40;4.60;99.90
30308;DHT22;17114;52.314;8.910;2023-01-31T09:11:07;4.60;99.90
30308;DHT22;17114;52.314;8.910;2023-01-31T09:13:34;4.60;99.90
30308;DHT22;17114;52.314;8.910;2023-01-31T09:16:05;4.50;99.90
30308;DHT22;17114;52.314;8.910;2023-01-31T09:18:35;4.50;99.90
30308;DHT22;17114;52.314;8.910;2023-01-31T09:21:07;4.50;99.90
30308;DHT22;17114;52.314;8.910;2023-01-31T09:23:35;4.50;99.90
30308;DHT22;17114;52.314;8.910;2023-01-31T09:26:02;4.50;99.90
30308;DHT22;17114;52.314;8.910;2023-01-31T09:28:29;4.50;99.90
30308;DHT22;17114;52.314;8.910;2023-01-31T09:31:05;4.50;99.90
30308;DHT22;17114;52.314;8.910;2023-01-31T09:33:33;4.50;99.90
30308;DHT22;17114;52.314;8.910;2023-01-31T09:36:03;4.50;99.90
30308;DHT22;17114;52.314;8.910;2023-01-31T09:38:30;4.50;99.90
30308;DHT22;17114;52.314;8.910;2023-01-31T09:41:00;4.50;99.90
30308;DHT22;17114;52.314;8.910;2023-01-31T09:43:33;4.50;99.90
30308;DHT22;17114;52.314;8.910;2023-01-31T09:46:03;4.50;99.90
30308;DHT22;17114;52.314;8.910;2023-01-31T09:48:34;4.50;99.90
30308;DHT22;17114;52.314;8.910;2023-01-31T09:51:04;4.50;99.90
30308;DHT22;17114;52.314;8.910;2023-01-31T09:53:34;4.50;99.90
30308;DHT22;17114;52.314;8.910;2023-01-31T09:56:34;4.50;99.90
30308;DHT22;17114;52.314;8.910;2023-01-31T10:05:17;4.50;99.90
30308;DHT22;17114;52.314;8.910;2023-01-31T10:10:50;4.60;99.90
30308;DHT22;17114;52.314;8.910;2023-01-31T10:18:35;4.70;99.90
30308;DHT22;17114;52.314;8.910;2023-01-31T10:21:10;4.70;99.90
30308;DHT22;17114;52.314;8.910;2023-01-31T10:35:11;5.00;99.90
30308;DHT22;17114;52.314;8.910;2023-01-31T10:37:43;5.00;99.90
30308;DHT22;17114;52.314;8.910;2023-01-31T10:40:15;5.00;99.90
30308;DHT22;17114;52.314;8.910;2023-01-31T10:42:52;5.00;99.90
30308;DHT22;17114;52.314;8.910;2023-01-31T10:45:24;5.00;99.90
30308;DHT22;17114;52.314;8.910;2023-01-31T10:53:40;5.10;99.90
30308;DHT22;17114;52.314;8.910;2023-01-31T10:56:10;5.10;99.90
30308;DHT22;17114;52.314;8.910;2023-01-31T10:58:38;5.10;99.90
30308;DHT22;17114;52.314;8.910;2023-01-31T11:01:05;5.30;99.90
30308;DHT22;17114;52.314;8.910;2023-01-31T11:03:49;5.10;99.90
30308;DHT22;17114;52.314;8.910;2023-01-31T11:06:16;5.20;99.90
30308;DHT22;17114;52.314;8.910;2023-01-31T11:11:13;5.30;99.90
30308;DHT22;17114;52.314;8.910;2023-01-31T11:14:00;5.30;99.90
30308;DHT22;17114;52.314;8.910;2023-01-31T11:16:33;5.30;99.90
30308;DHT22;17114;52.314;8.910;2023-01-31T11:19:17;5.30;99.90
30308;DHT22;17114;52.314;8.910;2023-01-31T11:21:50;5.40;99.90
30308;DHT22;17114;52.314;8.910;2023-01-31T11:24:28;5.40;99.90
30308;DHT22;17114;52.314;8.910;2023-01-31T11:27:05;5.40;99.90
30308;DHT22;17114;52.314;8.910;2023-01-31T11:29:53;5.40;99.90
30308;DHT22;17114;52.314;8.910;2023-01-31T11:32:31;5.40;99.90
30308;DHT22;17114;52.314;8.910;2023-01-31T11:37:30;5.40;99.90
30308;DHT22;17114;52.314;8.910;2023-01-31T11:40:16;5.40;99.90
30308;DHT22;17114;52.314;8.910;2023-01-31T11:42:56;5.40;99.90
30308;DHT22;17114;52.314;8.910;2023-01-31T11:45:35;5.40;99.90
30308;DHT22;17114;52.314;8.910;2023-01-31T11:48:23;5.30;99.90
30308;DHT22;17114;52.314;8.910;2023-01-31T11:50:53;5.30;99.90
30308;DHT22;17114;52.314;8.910;2023-01-31T11:53:23;5.20;99.90
30308;DHT22;17114;52.314;8.910;2023-01-31T11:55:54;5.30;99.90
30308;DHT22;17114;52.314;8.910;2023-01-31T12:01:00;5.30;99.90
30308;DHT22;17114;52.314;8.910;2023-01-31T12:03:28;5.30;99.90
30308;DHT22;17114;52.314;8.910;2023-01-31T12:06:04;5.30;99.90
30308;DHT22;17114;52.314;8.910;2023-01-31T12:08:35;5.30;99.90
30308;DHT22;17114;52.314;8.910;2023-01-31T12:14:11;5.30;99.90
30308;DHT22;17114;52.314;8.910;2023-01-31T12:16:39;5.30;99.90
30308;DHT22;17114;52.314;8.910;2023-01-31T12:27:34;5.30;99.90
30308;DHT22;17114;52.314;8.910;2023-01-31T12:33:12;5.40;99.90
30308;DHT22;17114;52.314;8.910;2023-01-31T12:39:14;5.40;99.90
30308;DHT22;17114;52.314;8.910;2023-01-31T12:50:00;5.30;99.90
30308;DHT22;17114;52.314;8.910;2023-01-31T12:52:58;5.30;99.90
30308;DHT22;17114;52.314;8.910;2023-01-31T12:55:57;5.30;99.90
30308;DHT22;17114;52.314;8.910;2023-01-31T13:01:15;5.30;99.90
30308;DHT22;17114;52.314;8.910;2023-01-31T13:06:41;5.30;99.90
30308;DHT22;17114;52.314;8.910;2023-01-31T13:09:17;5.30;99.90
30308;DHT22;17114;52.314;8.910;2023-01-31T13:14:38;5.30;99.90
30308;DHT22;17114;52.314;8.910;2023-01-31T13:17:11;5.30;99.90
30308;DHT22;17114;52.314;8.910;2023-01-31T13:19:47;5.30;99.90
30308;DHT22;17114;52.314;8.910;2023-01-31T13:28:20;5.30;99.90
30308;DHT22;17114;52.314;8.910;2023-01-31T13:31:00;5.40;99.90
30308;DHT22;17114;52.314;8.910;2023-01-31T13:36:14;5.40;99.90
30308;DHT22;17114;52.314;8.910;2023-01-31T13:38:43;5.40;99.90
30308;DHT22;17114;52.314;8.910;2023-01-31T13:41:40;5.40;99.90
30308;DHT22;17114;52.314;8.910;2023-01-31T13:44:12;5.50;99.90
30308;DHT22;17114;52.314;8.910;2023-01-31T13:47:11;5.60;99.90
30308;DHT22;17114;52.314;8.910;2023-01-31T13:49:46;5.60;99.90
30308;DHT22;17114;52.314;8.910;2023-01-31T13:52:28;5.70;99.90
30308;DHT22;17114;52.314;8.910;2023-01-31T13:55:03;5.60;99.90
30308;DHT22;17114;52.314;8.910;2023-01-31T13:57:34;5.80;99.90
30308;DHT22;17114;52.314;8.910;2023-01-31T14:00:33;5.90;99.90
30308;DHT22;17114;52.314;8.910;2023-01-31T14:11:01;5.80;99.90
30308;DHT22;17114;52.314;8.910;2023-01-31T14:16:39;5.80;99.90
30308;DHT22;17114;52.314;8.910;2023-01-31T14:29:57;6.00;99.90
30308;DHT22;17114;52.314;8.910;2023-01-31T14:32:37;6.00;99.90
30308;DHT22;17114;52.314;8.910;2023-01-31T14:38:10;6.10;99.90
30308;DHT22;17114;52.314;8.910;2023-01-31T14:52:31;6.10;99.90
30308;DHT22;17114;52.314;8.910;2023-01-31T14:57:41;6.20;99.90
30308;DHT22;17114;52.314;8.910;2023-01-31T15:02:53;6.10;99.90
30308;DHT22;17114;52.314;8.910;2023-01-31T15:16:23;6.30;99.90
30308;DHT22;17114;52.314;8.910;2023-01-31T15:24:29;6.40;99.90
30308;DHT22;17114;52.314;8.910;2023-01-31T15:26:59;6.40;99.90
30308;DHT22;17114;52.314;8.910;2023-01-31T15:29:32;6.50;99.90
30308;DHT22;17114;52.314;8.910;2023-01-31T15:32:18;6.40;99.90
30308;DHT22;17114;52.314;8.910;2023-01-31T15:35:03;6.60;99.90
30308;DHT22;17114;52.314;8.910;2023-01-31T15:37:33;6.50;99.90
30308;DHT22;17114;52.314;8.910;2023-01-31T15:40:22;6.40;99.90
30308;DHT22;17114;52.314;8.910;2023-01-31T15:42:50;6.50;99.90
30308;DHT22;17114;52.314;8.910;2023-01-31T15:45:25;6.50;99.90
30308;DHT22;17114;52.314;8.910;2023-01-31T15:48:01;6.60;99.90
30308;DHT22;17114;52.314;8.910;2023-01-31T15:50:31;6.60;99.90
30308;DHT22;17114;52.314;8.910;2023-01-31T15:53:06;6.60;99.90
30308;DHT22;17114;52.314;8.910;2023-01-31T15:55:39;6.70;99.90
30308;DHT22;17114;52.314;8.910;2023-01-31T15:58:16;6.70;99.90
30308;DHT22;17114;52.314;8.910;2023-01-31T16:00:44;6.80;99.90
30308;DHT22;17114;52.314;8.910;2023-01-31T16:03:25;6.90;99.90
30308;DHT22;17114;52.314;8.910;2023-01-31T16:05:56;7.00;99.90
30308;DHT22;17114;52.314;8.910;2023-01-31T16:08:30;7.00;99.90
30308;DHT22;17114;52.314;8.910;2023-01-31T16:11:08;6.90;99.90
30308;DHT22;17114;52.314;8.910;2023-01-31T16:13:38;7.00;99.90
30308;DHT22;17114;52.314;8.910;2023-01-31T16:16:08;7.10;99.90
30308;DHT22;17114;52.314;8.910;2023-01-31T16:18:36;7.00;99.90
30308;DHT22;17114;52.314;8.910;2023-01-31T16:23:59;7.10;99.90
30308;DHT22;17114;52.314;8.910;2023-01-31T16:29:21;7.10;99.90
30308;DHT22;17114;52.314;8.910;2023-01-31T16:31:51;7.10;99.90
30308;DHT22;17114;52.314;8.910;2023-01-31T16:39:41;6.90;99.90
30308;DHT22;17114;52.314;8.910;2023-01-31T16:44:44;6.60;99.90
30308;DHT22;17114;52.314;8.910;2023-01-31T16:47:46;6.60;99.90
30308;DHT22;17114;52.314;8.910;2023-01-31T16:52:47;6.60;99.90
30308;DHT22;17114;52.314;8.910;2023-01-31T16:55:19;6.40;99.90
30308;DHT22;17114;52.314;8.910;2023-01-31T16:57:47;6.40;99.90
30308;DHT22;17114;52.314;8.910;2023-01-31T17:02:55;6.40;99.90
30308;DHT22;17114;52.314;8.910;2023-01-31T17:05:25;6.50;99.90
30308;DHT22;17114;52.314;8.910;2023-01-31T17:07:56;6.50;99.90
30308;DHT22;17114;52.314;8.910;2023-01-31T17:10:29;6.40;99.90
30308;DHT22;17114;52.314;8.910;2023-01-31T17:13:21;6.40;99.90
30308;DHT22;17114;52.314;8.910;2023-01-31T17:15:48;6.30;99.90
30308;DHT22;17114;52.314;8.910;2023-01-31T17:18:15;6.20;99.90
30308;DHT22;17114;52.314;8.910;2023-01-31T17:20:46;6.20;99.90
30308;DHT22;17114;52.314;8.910;2023-01-31T17:23:17;6.10;99.90
30308;DHT22;17114;52.314;8.910;2023-01-31T17:25:44;6.00;99.90
30308;DHT22;17114;52.314;8.910;2023-01-31T17:28:11;6.00;99.90
30308;DHT22;17114;52.314;8.910;2023-01-31T17:30:40;6.10;99.90
30308;DHT22;17114;52.314;8.910;2023-01-31T17:33:11;6.00;99.90
30308;DHT22;17114;52.314;8.910;2023-01-31T17:35:41;6.00;99.90
30308;DHT22;17114;52.314;8.910;2023-01-31T17:38:08;6.00;99.90
30308;DHT22;17114;52.314;8.910;2023-01-31T17:40:38;6.10;99.90
30308;DHT22;17114;52.314;8.910;2023-01-31T17:43:06;6.00;99.90
30308;DHT22;17114;52.314;8.910;2023-01-31T17:45:33;6.10;99.90
30308;DHT22;17114;52.314;8.910;2023-01-31T17:47:59;6.10;99.90
30308;DHT22;17114;52.314;8.910;2023-01-31T17:50:27;6.20;99.90
30308;DHT22;17114;52.314;8.910;2023-01-31T17:52:55;6.20;99.90
30308;DHT22;17114;52.314;8.910;2023-01-31T17:55:22;6.30;99.90
30308;DHT22;17114;52.314;8.910;2023-01-31T17:57:51;6.30;99.90
30308;DHT22;17114;52.314;8.910;2023-01-31T18:00:19;6.30;99.90
30308;DHT22;17114;52.314;8.910;2023-01-31T18:02:46;6.30;99.90
30308;DHT22;17114;52.314;8.910;2023-01-31T18:05:15;6.20;99.90
30308;DHT22;17114;52.314;8.910;2023-01-31T18:07:50;6.30;99.90
30308;DHT22;17114;52.314;8.910;2023-01-31T18:10:18;6.30;99.90
30308;DHT22;17114;52.314;8.910;2023-01-31T18:12:45;6.20;99.90
30308;DHT22;17114;52.314;8.910;2023-01-31T18:15:12;6.20;99.90
30308;DHT22;17114;52.314;8.910;2023-01-31T18:17:39;6.20;99.90
30308;DHT22;17114;52.314;8.910;2023-01-31T18:20:06;6.20;99.90
30308;DHT22;17114;52.314;8.910;2023-01-31T18:22:36;6.20;99.90
30308;DHT22;17114;52.314;8.910;2023-01-31T18:25:04;6.20;99.90
30308;DHT22;17114;52.314;8.910;2023-01-31T18:27:31;6.20;99.90
30308;DHT22;17114;52.314;8.910;2023-01-31T18:29:58;6.40;99.90
30308;DHT22;17114;52.314;8.910;2023-01-31T18:32:24;6.20;99.90
30308;DHT22;17114;52.314;8.910;2023-01-31T18:34:51;6.10;99.90
30308;DHT22;17114;52.314;8.910;2023-01-31T18:37:18;6.10;99.90
30308;DHT22;17114;52.314;8.910;2023-01-31T18:39:47;6.10;99.90
30308;DHT22;17114;52.314;8.910;2023-01-31T18:42:15;6.10;99.90
30308;DHT22;17114;52.314;8.910;2023-01-31T18:44:42;6.10;99.90
30308;DHT22;17114;52.314;8.910;2023-01-31T18:47:14;6.10;99.90
30308;DHT22;17114;52.314;8.910;2023-01-31T18:49:41;6.10;99.90
30308;DHT22;17114;52.314;8.910;2023-01-31T18:52:08;6.10;99.90
30308;DHT22;17114;52.314;8.910;2023-01-31T18:54:36;6.00;99.90
30308;DHT22;17114;52.314;8.910;2023-01-31T18:57:04;6.00;99.90
30308;DHT22;17114;52.314;8.910;2023-01-31T18:59:33;6.00;99.90
30308;DHT22;17114;52.314;8.910;2023-01-31T19:02:00;6.00;99.90
30308;DHT22;17114;52.314;8.910;2023-01-31T19:04:27;5.90;99.90
30308;DHT22;17114;52.314;8.910;2023-01-31T19:06:54;5.90;99.90
30308;DHT22;17114;52.314;8.910;2023-01-31T19:09:22;5.80;99.90
30308;DHT22;17114;52.314;8.910;2023-01-31T19:11:49;5.80;99.90
30308;DHT22;17114;52.314;8.910;2023-01-31T19:14:16;5.70;99.90
30308;DHT22;17114;52.314;8.910;2023-01-31T19:16:43;5.70;99.90
30308;DHT22;17114;52.314;8.910;2023-01-31T19:19:11;5.60;99.90
30308;DHT22;17114;52.314;8.910;2023-01-31T19:21:38;5.70;99.90
30308;DHT22;17114;52.314;8.910;2023-01-31T19:24:09;5.60;99.90
30308;DHT22;17114;52.314;8.910;2023-01-31T19:26:36;5.70;99.90
30308;DHT22;17114;52.314;8.910;2023-01-31T19:29:04;5.80;99.90
30308;DHT22;17114;52.314;8.910;2023-01-31T19:31:34;5.80;99.90
30308;DHT22;17114;52.314;8.910;2023-01-31T19:34:04;5.80;99.90
30308;DHT22;17114;52.314;8.910;2023-01-31T19:36:39;5.60;99.90